sensor_id;sensor_type;location;lat;lon;timestamp;pressure;altitude;pressure_sealevel;temperature;humidity
50650;BME280;36621;60.058;30.346;2023-09-30T00:06:50;100865.00;;;18.18;69.00
50650;BME280;36621;60.058;30.346;2023-09-30T00:14:57;100724.88;;;17.35;68.70
50650;BME280;36621;60.058;30.346;2023-09-30T00:22:53;100646.63;;;16.91;68.60
50650;BME280;36621;60.058;30.346;2023-09-30T00:30:55;100844.84;;;18.18;68.40
50650;BME280;36621;60.058;30.346;2023-09-30T00:38:50;100598.91;;;16.81;68.53
50650;BME280;36621;60.058;30.346;2023-09-30T00:46:47;100733.97;;;17.44;68.92
50650;BME280;36621;60.058;30.346;2023-09-30T00:54:30;100825.34;;;18.14;69.17
50650;BME280;36621;60.058;30.346;2023-09-30T04:54:58;100386.94;;;16.80;71.94
50650;BME280;36621;60.058;30.346;2023-09-30T05:12:12;100535.59;;;18.04;72.33
50650;BME280;36621;60.058;30.346;2023-09-30T06:23:36;100465.22;;;18.10;71.77
50650;BME280;36621;60.058;30.346;2023-09-30T06:31:10;100437.72;;;18.22;70.97
50650;BME280;36621;60.058;30.346;2023-09-30T06:57:25;100426.56;;;18.70;68.92
50650;BME280;36621;60.058;30.346;2023-09-30T07:05:06;100360.44;;;18.35;68.60
50650;BME280;36621;60.058;30.346;2023-09-30T07:12:40;100367.94;;;18.55;68.72
50650;BME280;36621;60.058;30.346;2023-09-30T07:20:12;100391.38;;;18.79;67.54
50650;BME280;36621;60.058;30.346;2023-09-30T07:27:47;100390.16;;;18.68;68.25
50650;BME280;36621;60.058;30.346;2023-09-30T07:35:23;100314.78;;;18.08;68.68
50650;BME280;36621;60.058;30.346;2023-09-30T07:51:23;100329.78;;;18.49;68.46
50650;BME280;36621;60.058;30.346;2023-09-30T07:59:00;100169.91;;;17.45;67.76
50650;BME280;36621;60.058;30.346;2023-09-30T08:42:21;100310.13;;;19.97;63.94
50650;BME280;36621;60.058;30.346;2023-09-30T08:50:22;100210.28;;;19.81;63.27
50650;BME280;36621;60.058;30.346;2023-09-30T09:16:09;100238.47;;;20.36;62.10
50650;BME280;36621;60.058;30.346;2023-09-30T09:23:43;100244.34;;;20.62;62.36
50650;BME280;36621;60.058;30.346;2023-09-30T09:49:03;100058.53;;;19.86;61.35
50650;BME280;36621;60.058;30.346;2023-09-30T11:22:50;100213.84;;;19.81;62.81
50650;BME280;36621;60.058;30.346;2023-09-30T11:55:46;100143.25;;;19.50;62.21
50650;BME280;36621;60.058;30.346;2023-09-30T12:03:19;100188.66;;;19.99;61.66
50650;BME280;36621;60.058;30.346;2023-09-30T12:10:53;100186.28;;;20.25;61.61
50650;BME280;36621;60.058;30.346;2023-09-30T12:18:31;100198.34;;;20.45;61.05
50650;BME280;36621;60.058;30.346;2023-09-30T12:34:34;100198.59;;;20.00;62.51
50650;BME280;36621;60.058;30.346;2023-09-30T12:42:25;100162.25;;;19.64;62.82
50650;BME280;36621;60.058;30.346;2023-09-30T12:50:07;100232.47;;;18.77;67.96
50650;BME280;36621;60.058;30.346;2023-09-30T12:57:40;100096.53;;;17.14;69.97
50650;BME280;36621;60.058;30.346;2023-09-30T13:05:34;100145.41;;;17.65;70.19
50650;BME280;36621;60.058;30.346;2023-09-30T13:14:01;100110.16;;;17.49;69.78
50650;BME280;36621;60.058;30.346;2023-09-30T13:31:09;100179.88;;;18.31;71.00
50650;BME280;36621;60.058;30.346;2023-09-30T13:38:46;100224.47;;;18.63;70.70
50650;BME280;36621;60.058;30.346;2023-09-30T13:46:19;100220.69;;;18.88;69.83
50650;BME280;36621;60.058;30.346;2023-09-30T13:53:55;100205.97;;;18.75;70.12
50650;BME280;36621;60.058;30.346;2023-09-30T14:01:28;100191.34;;;18.75;68.94
50650;BME280;36621;60.058;30.346;2023-09-30T14:09:04;100065.91;;;17.79;69.40
50650;BME280;36621;60.058;30.346;2023-09-30T14:16:39;100203.66;;;18.44;69.28
50650;BME280;36621;60.058;30.346;2023-09-30T14:24:16;100175.78;;;18.16;67.26
50650;BME280;36621;60.058;30.346;2023-09-30T15:43:59;100224.31;;;16.71;66.31
50650;BME280;36621;60.058;30.346;2023-09-30T15:51:32;100165.34;;;16.20;65.80
50650;BME280;36621;60.058;30.346;2023-09-30T15:59:05;100222.06;;;16.56;66.12
50650;BME280;36621;60.058;30.346;2023-09-30T16:06:39;100215.56;;;16.52;65.83
50650;BME280;36621;60.058;30.346;2023-09-30T16:14:12;100223.34;;;16.49;65.15
50650;BME280;36621;60.058;30.346;2023-09-30T16:21:44;100110.38;;;15.53;65.58
50650;BME280;36621;60.058;30.346;2023-09-30T16:29:25;100221.09;;;16.34;64.90
50650;BME280;36621;60.058;30.346;2023-09-30T16:36:58;100237.09;;;16.14;64.67
50650;BME280;36621;60.058;30.346;2023-09-30T16:54:05;100151.97;;;15.52;64.92
50650;BME280;36621;60.058;30.346;2023-09-30T17:01:41;100224.06;;;15.80;64.70
50650;BME280;36621;60.058;30.346;2023-09-30T17:09:17;100221.34;;;15.89;64.83
50650;BME280;36621;60.058;30.346;2023-09-30T17:16:49;100184.69;;;15.62;64.42
50650;BME280;36621;60.058;30.346;2023-09-30T17:24:25;100115.19;;;15.30;64.34
50650;BME280;36621;60.058;30.346;2023-09-30T17:40:01;100101.91;;;15.23;63.51
50650;BME280;36621;60.058;30.346;2023-09-30T17:57:13;100119.25;;;15.33;63.39
50650;BME280;36621;60.058;30.346;2023-09-30T18:04:46;100168.16;;;15.53;64.20
50650;BME280;36621;60.058;30.346;2023-09-30T18:12:19;100090.84;;;15.06;65.18
50650;BME280;36621;60.058;30.346;2023-09-30T18:19:52;100180.81;;;15.63;65.80
50650;BME280;36621;60.058;30.346;2023-09-30T18:27:25;100132.69;;;15.34;65.48
50650;BME280;36621;60.058;30.346;2023-09-30T18:34:58;100172.00;;;15.43;64.66
50650;BME280;36621;60.058;30.346;2023-09-30T18:42:31;100191.66;;;15.68;64.35
50650;BME280;36621;60.058;30.346;2023-09-30T18:50:05;100177.56;;;15.61;62.72
50650;BME280;36621;60.058;30.346;2023-09-30T18:57:39;100184.84;;;15.66;63.03
50650;BME280;36621;60.058;30.346;2023-09-30T19:05:11;100102.06;;;15.18;62.81
50650;BME280;36621;60.058;30.346;2023-09-30T19:12:46;100170.63;;;15.72;62.22
50650;BME280;36621;60.058;30.346;2023-09-30T19:20:18;100151.00;;;15.56;62.22
50650;BME280;36621;60.058;30.346;2023-09-30T19:27:52;100063.44;;;14.83;62.72
50650;BME280;36621;60.058;30.346;2023-09-30T19:44:08;99929.56;;;13.86;63.29
50650;BME280;36621;60.058;30.346;2023-09-30T19:51:49;100172.69;;;15.09;63.06
50650;BME280;36621;60.058;30.346;2023-09-30T19:59:22;100119.72;;;14.86;63.39
50650;BME280;36621;60.058;30.346;2023-09-30T20:06:54;100124.84;;;14.79;63.06
50650;BME280;36621;60.058;30.346;2023-09-30T20:14:28;100138.28;;;14.80;63.74
50650;BME280;36621;60.058;30.346;2023-09-30T20:31:22;100108.31;;;14.47;64.01
50650;BME280;36621;60.058;30.346;2023-09-30T20:38:54;100144.50;;;14.63;63.54
50650;BME280;36621;60.058;30.346;2023-09-30T20:46:27;100139.00;;;14.63;63.65
50650;BME280;36621;60.058;30.346;2023-09-30T20:54:00;100135.66;;;14.52;63.12
50650;BME280;36621;60.058;30.346;2023-09-30T21:01:33;100137.63;;;14.52;63.45
50650;BME280;36621;60.058;30.346;2023-09-30T21:09:05;100137.50;;;14.34;64.18
50650;BME280;36621;60.058;30.346;2023-09-30T21:16:39;100140.09;;;14.39;63.80
50650;BME280;36621;60.058;30.346;2023-09-30T21:24:11;100131.00;;;14.30;63.62
50650;BME280;36621;60.058;30.346;2023-09-30T21:31:44;100128.06;;;14.27;63.84
50650;BME280;36621;60.058;30.346;2023-09-30T21:39:19;100121.16;;;14.29;64.27
50650;BME280;36621;60.058;30.346;2023-09-30T21:46:53;100105.41;;;14.21;64.85
50650;BME280;36621;60.058;30.346;2023-09-30T21:54:25;100060.63;;;13.89;64.50
50650;BME280;36621;60.058;30.346;2023-09-30T22:01:58;100125.94;;;14.23;64.99
50650;BME280;36621;60.058;30.346;2023-09-30T22:09:32;100113.53;;;14.26;64.93
50650;BME280;36621;60.058;30.346;2023-09-30T22:17:06;100113.38;;;14.31;65.17
50650;BME280;36621;60.058;30.346;2023-09-30T22:24:38;100035.25;;;13.83;65.07
50650;BME280;36621;60.058;30.346;2023-09-30T22:32:11;100093.16;;;14.18;66.19
50650;BME280;36621;60.058;30.346;2023-09-30T22:39:43;100090.69;;;14.17;65.05
50650;BME280;36621;60.058;30.346;2023-09-30T22:47:18;100094.81;;;14.05;65.94
50650;BME280;36621;60.058;30.346;2023-09-30T22:54:50;100094.56;;;13.93;66.40
50650;BME280;36621;60.058;30.346;2023-09-30T23:02:23;100089.69;;;13.90;67.04
50650;BME280;36621;60.058;30.346;2023-09-30T23:09:56;100098.78;;;13.99;66.60
50650;BME280;36621;60.058;30.346;2023-09-30T23:17:30;100086.72;;;14.23;65.95
50650;BME280;36621;60.058;30.346;2023-09-30T23:25:03;100034.75;;;14.04;65.86
50650;BME280;36621;60.058;30.346;2023-09-30T23:32:40;100065.59;;;14.10;66.49
50650;BME280;36621;60.058;30.346;2023-09-30T23:40:13;100051.66;;;13.97;65.91
50650;BME280;36621;60.058;30.346;2023-09-30T23:47:46;100029.56;;;13.80;67.17
50650;BME280;36621;60.058;30.346;2023-09-30T23:55:21;100050.53;;;13.76;67.00
